createdAt,value
2023-03-01T00:00:48.045Z,94184.75
2023-03-01T00:01:44.647Z,94195.72
2023-03-01T00:02:41.403Z,94182.50
2023-03-01T00:03:38.458Z,94188.88
2023-03-01T00:04:36.758Z,94181.16
2023-03-01T00:05:33.441Z,94171.47
2023-03-01T00:06:30.376Z,94182.13
2023-03-01T00:07:27.098Z,94178.50
2023-03-01T00:08:25.956Z,94177.91
2023-03-01T00:09:23.165Z,94171.38
2023-03-01T00:10:19.739Z,94168.81
2023-03-01T00:11:42.690Z,94037.38
2023-03-01T00:12:39.362Z,94164.69
2023-03-01T00:13:36.828Z,94166.31
2023-03-01T00:14:33.618Z,94165.63
2023-03-01T00:15:31.780Z,94165.25
2023-03-01T00:16:40.621Z,94112.41
2023-03-01T00:17:37.401Z,94165.25
2023-03-01T00:18:34.652Z,94169.38
2023-03-01T00:19:31.423Z,94171.22
2023-03-01T00:20:28.168Z,94161.56
2023-03-01T00:21:25.852Z,94130.91
2023-03-01T00:22:22.576Z,94159.59
2023-03-01T00:23:19.646Z,94162.13
2023-03-01T00:24:16.969Z,94129.72
2023-03-01T00:25:13.611Z,94160.16
2023-03-01T00:26:13.530Z,94112.97
2023-03-01T00:27:10.250Z,94123.72
2023-03-01T00:28:06.882Z,94161.31
2023-03-01T00:29:03.514Z,94164.25
2023-03-01T00:30:00.167Z,94163.34
2023-03-01T00:30:57.027Z,94160.84
2023-03-01T00:31:53.714Z,94158.50
2023-03-01T00:32:50.316Z,94155.94
2023-03-01T00:33:47.333Z,94153.09
2023-03-01T00:34:43.992Z,94158.28
2023-03-01T00:35:40.741Z,94154.41
2023-03-01T00:36:38.164Z,94095.00
2023-03-01T00:37:34.765Z,94152.72
2023-03-01T00:38:31.959Z,94153.47
2023-03-01T00:39:28.663Z,94156.22
2023-03-01T00:40:26.431Z,94153.53
2023-03-01T00:41:24.716Z,94141.25
2023-03-01T00:42:21.424Z,94145.16
2023-03-01T00:43:18.084Z,94147.59
2023-03-01T00:44:14.821Z,94148.03
2023-03-01T00:45:11.650Z,94149.34
2023-03-01T00:46:11.448Z,94111.72
2023-03-01T00:47:08.115Z,94142.78
2023-03-01T00:48:06.164Z,94143.19
2023-03-01T00:49:03.346Z,94144.75
2023-03-01T00:49:59.938Z,94142.44
2023-03-01T00:50:56.579Z,94136.84
2023-03-01T00:51:53.254Z,94136.72
2023-03-01T00:52:54.152Z,94133.84
2023-03-01T00:54:00.333Z,94136.28
2023-03-01T00:54:57.000Z,94134.59
2023-03-01T00:55:53.548Z,94135.38
2023-03-01T00:56:50.203Z,94142.50
2023-03-01T00:57:46.813Z,94144.34
2023-03-01T00:58:43.509Z,94141.34
2023-03-01T00:59:40.082Z,94136.59
2023-03-01T01:00:37.002Z,94147.69
2023-03-01T01:01:33.736Z,94138.69
2023-03-01T01:02:30.402Z,94143.16
2023-03-01T01:03:27.383Z,94141.97
2023-03-01T01:04:24.129Z,94129.28
2023-03-01T01:05:22.007Z,94139.34
2023-03-01T01:06:21.211Z,94136.53
2023-03-01T01:07:18.237Z,94131.16
2023-03-01T01:08:14.850Z,94133.03
2023-03-01T01:09:19.221Z,94139.50
2023-03-01T01:10:21.794Z,94101.13
2023-03-01T01:11:20.774Z,94141.97
2023-03-01T01:12:17.487Z,94141.03
2023-03-01T01:13:14.598Z,94138.19
2023-03-01T01:14:11.265Z,94154.34
2023-03-01T01:15:08.491Z,94136.84
2023-03-01T01:16:05.837Z,94079.50
2023-03-01T01:17:02.656Z,94134.81
2023-03-01T01:17:59.211Z,94136.81
2023-03-01T01:18:57.152Z,94140.47
2023-03-01T01:19:53.766Z,94140.44
2023-03-01T01:20:50.344Z,94144.31
2023-03-01T01:21:47.798Z,94141.88
2023-03-01T01:22:44.559Z,94146.78
2023-03-01T01:23:42.449Z,94083.09
2023-03-01T01:24:39.053Z,94095.91
2023-03-01T01:25:37.906Z,94116.09
2023-03-01T01:26:35.524Z,94138.66
2023-03-01T01:27:32.120Z,94141.50
2023-03-01T01:28:28.767Z,94151.69
2023-03-01T01:29:25.529Z,94150.91
2023-03-01T01:30:22.123Z,94152.03
2023-03-01T01:31:19.146Z,94155.97
2023-03-01T01:32:15.926Z,94155.22
2023-03-01T01:33:12.574Z,94153.09
2023-03-01T01:34:15.549Z,94148.66
2023-03-01T01:35:12.142Z,94151.88
2023-03-01T01:36:09.698Z,94153.22
2023-03-01T01:37:08.899Z,94151.25
2023-03-01T01:38:05.631Z,94147.53
2023-03-01T01:39:02.709Z,94148.31
2023-03-01T01:40:00.469Z,94154.84
2023-03-01T01:40:57.317Z,94155.06
2023-03-01T01:41:54.021Z,94138.88
2023-03-01T01:42:50.572Z,94154.28
2023-03-01T01:44:25.784Z,94150.91
2023-03-01T01:45:31.378Z,94153.66
2023-03-01T01:46:37.308Z,94151.03
2023-03-01T01:47:33.936Z,94153.50
2023-03-01T01:48:41.406Z,94125.47
2023-03-01T01:49:44.694Z,94161.16
2023-03-01T01:50:42.291Z,94163.41
2023-03-01T01:51:43.023Z,94159.78
2023-03-01T01:52:39.674Z,94152.72
2023-03-01T01:53:37.333Z,94130.41
2023-03-01T01:54:46.829Z,94161.47
2023-03-01T01:55:48.381Z,94153.34
2023-03-01T01:56:51.602Z,94115.66
2023-03-01T01:57:55.846Z,94150.34
2023-03-01T01:58:53.247Z,94147.97
2023-03-01T01:59:55.366Z,94150.91
2023-03-01T02:00:52.026Z,94150.41
2023-03-01T02:01:48.612Z,94127.75
2023-03-01T02:02:48.042Z,94147.88
2023-03-01T02:03:47.566Z,94151.59
2023-03-01T02:04:44.289Z,94147.88
2023-03-01T02:05:46.807Z,94161.31
2023-03-01T02:06:54.198Z,94151.84
2023-03-01T02:07:51.443Z,94150.94
2023-03-01T02:08:50.642Z,94159.03
2023-03-01T02:09:50.325Z,94153.50
2023-03-01T02:10:49.207Z,94143.13
2023-03-01T02:11:45.827Z,94151.38
2023-03-01T02:12:43.058Z,94151.91
2023-03-01T02:13:39.797Z,94147.88
2023-03-01T02:14:36.499Z,94148.88
2023-03-01T02:15:35.474Z,94098.81
2023-03-01T02:16:33.093Z,94156.91
2023-03-01T02:17:30.754Z,94142.72
2023-03-01T02:18:27.631Z,94149.56
2023-03-01T02:19:52.138Z,94139.78
2023-03-01T02:21:00.696Z,94146.13
2023-03-01T02:22:04.900Z,94151.63
2023-03-01T02:23:01.846Z,94145.47
2023-03-01T02:24:05.153Z,94055.16
2023-03-01T02:25:19.700Z,94134.31
2023-03-01T02:26:32.599Z,94133.84
2023-03-01T02:27:39.394Z,94135.31
2023-03-01T02:28:41.338Z,94138.53
2023-03-01T02:29:37.962Z,94128.44
2023-03-01T02:30:35.190Z,94128.97
2023-03-01T02:31:44.138Z,94125.53
2023-03-01T02:32:42.772Z,94128.84
2023-03-01T02:33:40.770Z,94126.69
2023-03-01T02:34:37.420Z,94009.28
2023-03-01T02:35:40.357Z,94086.44
2023-03-01T02:36:50.134Z,94118.88
2023-03-01T02:37:49.006Z,94092.41
2023-03-01T02:38:47.089Z,94123.97
2023-03-01T02:39:49.315Z,94128.38
2023-03-01T02:40:46.390Z,94123.38
2023-03-01T02:41:49.850Z,94123.44
2023-03-01T02:42:56.973Z,94117.59
2023-03-01T02:43:53.820Z,94118.38
2023-03-01T02:44:51.192Z,94089.53
2023-03-01T02:45:53.740Z,94064.84
2023-03-01T02:46:53.556Z,94103.81
2023-03-01T02:47:50.771Z,94113.78
2023-03-01T02:48:50.575Z,94121.97
2023-03-01T02:49:47.265Z,94117.97
2023-03-01T02:51:28.261Z,94123.22
2023-03-01T02:52:43.367Z,94125.22
2023-03-01T02:53:47.079Z,94119.25
2023-03-01T02:54:58.556Z,94123.38
2023-03-01T02:55:55.190Z,94115.16
2023-03-01T02:56:52.806Z,94122.09
2023-03-01T02:57:52.617Z,94115.94
2023-03-01T02:58:52.603Z,94110.66
2023-03-01T02:59:51.070Z,94105.19
2023-03-01T03:00:50.432Z,94111.75
2023-03-01T03:01:47.532Z,94114.16
2023-03-01T03:02:44.289Z,94109.50
2023-03-01T03:03:41.052Z,94113.03
2023-03-01T03:04:37.650Z,94116.06
2023-03-01T03:05:35.389Z,94106.03
2023-03-01T03:06:32.414Z,94114.88
2023-03-01T03:07:29.141Z,94113.19
2023-03-01T03:08:25.728Z,94115.84
2023-03-01T03:09:22.530Z,94107.53
2023-03-01T03:10:24.776Z,94107.44
2023-03-01T03:11:21.912Z,94118.78
2023-03-01T03:12:18.461Z,94122.41
2023-03-01T03:13:15.458Z,94110.38
2023-03-01T03:14:14.525Z,94118.59
2023-03-01T03:15:13.851Z,94125.53
2023-03-01T03:16:10.558Z,94122.41
2023-03-01T03:17:07.656Z,94119.66
2023-03-01T03:18:07.001Z,94123.38
2023-03-01T03:19:05.927Z,94118.41
2023-03-01T03:20:05.004Z,94097.25
2023-03-01T03:21:01.641Z,94125.34
2023-03-01T03:21:58.550Z,94118.69
2023-03-01T03:22:59.280Z,94122.41
2023-03-01T03:23:58.324Z,94128.34
2023-03-01T03:24:55.841Z,94101.47
2023-03-01T03:25:52.748Z,94117.81
2023-03-01T03:26:49.304Z,94103.03
2023-03-01T03:27:48.210Z,94126.28
2023-03-01T03:28:44.833Z,94128.94
2023-03-01T03:29:41.399Z,94139.75
2023-03-01T03:30:40.793Z,94140.13
2023-03-01T03:31:37.530Z,94128.16
2023-03-01T03:32:34.240Z,94102.06
2023-03-01T03:33:32.294Z,94140.75
2023-03-01T03:34:28.879Z,94137.63
2023-03-01T03:35:34.305Z,94130.47
2023-03-01T03:36:31.092Z,94141.16
2023-03-01T03:37:46.348Z,94068.06
2023-03-01T03:38:42.980Z,94146.31
2023-03-01T03:39:39.564Z,94129.84
2023-03-01T03:40:39.332Z,94145.47
2023-03-01T03:41:36.168Z,94111.38
2023-03-01T03:42:32.705Z,94150.59
2023-03-01T03:43:31.096Z,94153.97
2023-03-01T03:44:46.189Z,94156.06
2023-03-01T03:45:45.396Z,94152.84
2023-03-01T03:47:00.396Z,94146.81
2023-03-01T03:47:57.091Z,94142.94
2023-03-01T03:48:53.730Z,94151.03
2023-03-01T03:49:50.297Z,94154.56
2023-03-01T03:50:52.655Z,94145.94
2023-03-01T03:51:49.288Z,94161.03
2023-03-01T03:52:45.962Z,94157.09
2023-03-01T03:53:43.474Z,94155.16
2023-03-01T03:54:42.972Z,94146.50
2023-03-01T03:55:40.304Z,94147.13
2023-03-01T03:56:38.737Z,94140.34
2023-03-01T03:57:36.852Z,94161.88
2023-03-01T03:58:33.576Z,94155.25
2023-03-01T03:59:30.176Z,94157.63
2023-03-01T04:00:26.867Z,94157.75
2023-03-01T04:01:23.599Z,94143.72
2023-03-01T04:02:23.236Z,94157.09
2023-03-01T04:03:21.050Z,94154.63
2023-03-01T04:04:19.967Z,94148.75
2023-03-01T04:05:19.105Z,94159.47
2023-03-01T04:06:16.033Z,94129.50
2023-03-01T04:07:12.584Z,94170.47
2023-03-01T04:08:09.909Z,94139.75
2023-03-01T04:09:06.521Z,94157.75
2023-03-01T04:10:04.697Z,94158.22
2023-03-01T04:11:22.258Z,94147.00
2023-03-01T04:12:23.979Z,94094.63
2023-03-01T04:13:23.728Z,94152.28
2023-03-01T04:14:20.324Z,94145.56
2023-03-01T04:15:16.981Z,94146.84
2023-03-01T04:16:13.657Z,94149.06
2023-03-01T04:17:10.391Z,94155.41
2023-03-01T04:18:08.138Z,94149.44
2023-03-01T04:19:07.335Z,94134.66
2023-03-01T04:20:06.655Z,94149.09
2023-03-01T04:21:03.296Z,94149.25
2023-03-01T04:21:59.967Z,94149.09
2023-03-01T04:23:11.561Z,94133.31
2023-03-01T04:24:09.920Z,94120.94
2023-03-01T04:25:07.322Z,94150.78
2023-03-01T04:26:04.144Z,94107.47
2023-03-01T04:27:00.781Z,94152.94
2023-03-01T04:27:57.426Z,94149.75
2023-03-01T04:28:54.126Z,94150.91
2023-03-01T04:29:50.771Z,94143.31
2023-03-01T04:30:47.484Z,94118.84
2023-03-01T04:31:44.384Z,94147.84
2023-03-01T04:32:41.179Z,94148.91
2023-03-01T04:33:37.813Z,94146.78
2023-03-01T04:34:34.406Z,94133.31
2023-03-01T04:35:32.181Z,94133.72
2023-03-01T04:36:31.063Z,94141.63
2023-03-01T04:37:28.594Z,94096.59
2023-03-01T04:38:25.185Z,94113.38
2023-03-01T04:39:22.116Z,94106.72
2023-03-01T04:40:18.718Z,94136.34
2023-03-01T04:41:17.799Z,94066.09
2023-03-01T04:42:15.969Z,94137.72
2023-03-01T04:43:15.606Z,94144.81
2023-03-01T04:44:12.478Z,94151.63
2023-03-01T04:45:14.157Z,94115.09
2023-03-01T04:46:16.363Z,94149.53
2023-03-01T04:47:13.697Z,94143.88
2023-03-01T04:48:10.398Z,94138.06
2023-03-01T04:49:07.008Z,94141.94
2023-03-01T04:50:04.763Z,94140.78
2023-03-01T04:51:01.778Z,94089.94
2023-03-01T04:52:03.119Z,94138.38
2023-03-01T04:52:59.777Z,94131.53
2023-03-01T04:53:56.513Z,94130.53
2023-03-01T04:54:53.096Z,94130.44
2023-03-01T04:55:49.725Z,94104.84
2023-03-01T04:56:46.292Z,94117.91
2023-03-01T04:57:42.889Z,94114.53
2023-03-01T04:58:39.513Z,94111.25
2023-03-01T04:59:37.232Z,94125.28
2023-03-01T05:00:33.847Z,94121.22
2023-03-01T05:01:30.436Z,94128.09
2023-03-01T05:02:27.300Z,94126.47
2023-03-01T05:03:24.063Z,94129.41
2023-03-01T05:04:20.627Z,94125.78
2023-03-01T05:05:17.221Z,94127.13
2023-03-01T05:06:14.923Z,94091.88
2023-03-01T05:07:14.060Z,94126.22
2023-03-01T05:08:18.415Z,94131.16
2023-03-01T05:09:15.020Z,94111.25
2023-03-01T05:10:11.685Z,94133.63
2023-03-01T05:11:12.177Z,94127.47
2023-03-01T05:12:08.796Z,94133.94
2023-03-01T05:13:05.375Z,94134.03
2023-03-01T05:14:02.573Z,94137.63
2023-03-01T05:14:59.528Z,94123.88
2023-03-01T05:15:58.276Z,94131.19
2023-03-01T05:16:54.902Z,94131.09
2023-03-01T05:17:51.537Z,94115.66
2023-03-01T05:18:48.109Z,94122.59
2023-03-01T05:19:44.708Z,94132.16
2023-03-01T05:20:41.323Z,94131.19
2023-03-01T05:22:01.121Z,94101.28
2023-03-01T05:23:00.427Z,94137.03
2023-03-01T05:23:57.021Z,94122.69
2023-03-01T05:24:55.054Z,94129.84
2023-03-01T05:25:53.351Z,94119.81
2023-03-01T05:26:50.069Z,94133.81
2023-03-01T05:27:46.685Z,94132.97
2023-03-01T05:28:43.231Z,94140.59
2023-03-01T05:29:40.549Z,94140.97
2023-03-01T05:30:37.517Z,94139.81
2023-03-01T05:31:34.069Z,94145.25
2023-03-01T05:32:33.086Z,94139.31
2023-03-01T05:33:29.726Z,94149.47
2023-03-01T05:34:28.717Z,94111.53
2023-03-01T05:35:25.658Z,94142.94
2023-03-01T05:36:22.599Z,94143.03
2023-03-01T05:37:20.469Z,94142.63
2023-03-01T05:38:17.699Z,94098.28
2023-03-01T05:39:14.265Z,94147.41
2023-03-01T05:40:16.660Z,94150.53
2023-03-01T05:41:17.854Z,94153.78
2023-03-01T05:42:14.407Z,94127.69
2023-03-01T05:43:11.630Z,94150.53
2023-03-01T05:44:08.335Z,94153.41
2023-03-01T05:45:05.226Z,94146.06
2023-03-01T05:46:02.152Z,94144.69
2023-03-01T05:46:58.765Z,94095.41
2023-03-01T05:47:56.215Z,94144.41
2023-03-01T05:48:52.833Z,94154.19
2023-03-01T05:49:51.240Z,94144.59
2023-03-01T05:50:48.657Z,94150.47
2023-03-01T05:51:50.313Z,94152.41
2023-03-01T05:52:52.226Z,94155.13
2023-03-01T05:53:48.849Z,94147.22
2023-03-01T05:54:45.510Z,94148.97
2023-03-01T05:55:43.651Z,94156.81
2023-03-01T05:56:40.214Z,94159.72
2023-03-01T05:57:36.794Z,94152.31
2023-03-01T05:58:33.456Z,94158.56
2023-03-01T05:59:30.035Z,94164.84
2023-03-01T06:00:26.759Z,94158.28
2023-03-01T06:01:23.369Z,94166.41
2023-03-01T06:02:19.952Z,94160.44
2023-03-01T06:03:18.625Z,94164.22
2023-03-01T06:04:15.256Z,94163.66
2023-03-01T06:05:14.149Z,94161.19
2023-03-01T06:06:10.852Z,94173.72
2023-03-01T06:07:07.450Z,94159.25
2023-03-01T06:08:04.398Z,94174.53
2023-03-01T06:09:01.036Z,94173.63
2023-03-01T06:09:57.657Z,94172.56
2023-03-01T06:10:54.688Z,94174.72
2023-03-01T06:11:51.335Z,94172.06
2023-03-01T06:12:48.147Z,94178.09
2023-03-01T06:13:45.956Z,94174.41
2023-03-01T06:14:42.555Z,94170.03
2023-03-01T06:15:39.214Z,94175.09
2023-03-01T06:16:35.843Z,94144.41
2023-03-01T06:17:38.394Z,94180.16
2023-03-01T06:18:35.119Z,94122.41
2023-03-01T06:19:31.816Z,94151.81
2023-03-01T06:20:32.991Z,94183.41
2023-03-01T06:21:29.616Z,94179.91
2023-03-01T06:22:26.604Z,94182.91
2023-03-01T06:23:24.890Z,94157.88
2023-03-01T06:24:21.464Z,94185.16
2023-03-01T06:25:24.081Z,94178.91
2023-03-01T06:26:20.764Z,94203.16
2023-03-01T06:27:17.463Z,94178.63
2023-03-01T06:28:14.158Z,94184.28
2023-03-01T06:29:10.878Z,94181.44
2023-03-01T06:30:11.662Z,94183.56
2023-03-01T06:31:09.954Z,94179.66
2023-03-01T06:32:06.842Z,94137.94
2023-03-01T06:33:04.180Z,94163.84
2023-03-01T06:34:00.877Z,94181.09
2023-03-01T06:34:57.696Z,94186.78
2023-03-01T06:35:57.598Z,94188.06
2023-03-01T06:36:54.375Z,94151.91
2023-03-01T06:37:51.022Z,94187.06
2023-03-01T06:38:47.802Z,94187.41
2023-03-01T06:39:44.413Z,94186.31
2023-03-01T06:40:40.962Z,94183.13
2023-03-01T06:41:37.541Z,94185.84
2023-03-01T06:42:34.100Z,94190.53
2023-03-01T06:43:30.695Z,94182.94
2023-03-01T06:44:27.873Z,94168.22
2023-03-01T06:45:25.427Z,94191.38
2023-03-01T06:46:22.638Z,94187.56
2023-03-01T06:47:19.265Z,94189.31
2023-03-01T06:48:16.273Z,94191.84
2023-03-01T06:49:12.852Z,94198.16
2023-03-01T06:50:10.177Z,94181.16
2023-03-01T06:51:06.884Z,94194.72
2023-03-01T06:52:03.652Z,94195.50
2023-03-01T06:53:00.572Z,94192.00
2023-03-01T06:53:57.174Z,94191.44
2023-03-01T06:54:54.036Z,94188.47
2023-03-01T06:55:58.317Z,94191.66
2023-03-01T06:56:54.942Z,94170.16
2023-03-01T06:57:58.678Z,94183.41
2023-03-01T06:58:55.283Z,94159.63
2023-03-01T06:59:51.882Z,94189.59
2023-03-01T07:00:48.534Z,94167.16
2023-03-01T07:01:45.203Z,94184.84
2023-03-01T07:02:41.930Z,94150.47
2023-03-01T07:03:38.563Z,94178.59
2023-03-01T07:04:35.250Z,94181.03
2023-03-01T07:05:31.974Z,94181.47
2023-03-01T07:06:28.799Z,94174.56
2023-03-01T07:07:25.476Z,94179.59
2023-03-01T07:08:22.024Z,94181.25
2023-03-01T07:09:20.822Z,94160.84
2023-03-01T07:10:17.559Z,94182.53
2023-03-01T07:11:14.485Z,94168.34
2023-03-01T07:12:11.358Z,94193.16
2023-03-01T07:13:08.062Z,94183.91
2023-03-01T07:14:04.708Z,94133.53
2023-03-01T07:15:01.294Z,94182.50
2023-03-01T07:15:58.025Z,94194.66
2023-03-01T07:16:55.222Z,94183.78
2023-03-01T07:17:52.154Z,94188.81
2023-03-01T07:18:48.742Z,94186.59
2023-03-01T07:19:48.107Z,94184.44
2023-03-01T07:20:44.697Z,94187.53
2023-03-01T07:21:41.380Z,94193.88
2023-03-01T07:22:41.305Z,94169.56
2023-03-01T07:23:37.909Z,94185.81
2023-03-01T07:24:34.983Z,94189.13
2023-03-01T07:25:31.669Z,94190.19
2023-03-01T07:26:28.465Z,94181.72
2023-03-01T07:27:25.281Z,94182.91
2023-03-01T07:28:24.427Z,94180.88
2023-03-01T07:29:21.045Z,94186.88
2023-03-01T07:30:17.939Z,94185.00
2023-03-01T07:31:15.795Z,94187.38
2023-03-01T07:32:12.820Z,94184.69
2023-03-01T07:33:09.465Z,94147.56
2023-03-01T07:34:06.109Z,94186.00
2023-03-01T07:35:02.819Z,94184.91
2023-03-01T07:36:01.582Z,94185.06
2023-03-01T07:36:58.308Z,94181.31
2023-03-01T07:37:55.032Z,94174.41
2023-03-01T07:38:52.136Z,94171.44
2023-03-01T07:39:48.694Z,94174.16
2023-03-01T07:40:45.303Z,94175.16
2023-03-01T07:41:41.922Z,94172.75
2023-03-01T07:42:39.250Z,94169.63
2023-03-01T07:43:35.858Z,94174.72
2023-03-01T07:44:32.985Z,94172.88
2023-03-01T07:45:30.385Z,94099.03
2023-03-01T07:46:27.072Z,94178.78
2023-03-01T07:47:23.736Z,94180.75
2023-03-01T07:48:20.400Z,94168.22
2023-03-01T07:49:17.029Z,94174.03
2023-03-01T07:50:14.657Z,94174.91
2023-03-01T07:51:11.820Z,94170.34
2023-03-01T07:52:11.913Z,94178.31
2023-03-01T07:53:09.358Z,94180.44
2023-03-01T07:54:06.228Z,94183.06
2023-03-01T07:55:02.887Z,94181.31
2023-03-01T07:56:10.761Z,94179.97
2023-03-01T07:57:07.472Z,94177.75
2023-03-01T07:58:04.511Z,94173.81
2023-03-01T07:59:01.324Z,94173.97
2023-03-01T07:59:58.035Z,94176.78
2023-03-01T08:00:54.641Z,94168.78
2023-03-01T08:01:51.363Z,94176.34
2023-03-01T08:02:48.082Z,94142.41
2023-03-01T08:03:45.269Z,94161.72
2023-03-01T08:04:43.312Z,94175.56
2023-03-01T08:05:39.875Z,94168.69
2023-03-01T08:06:37.066Z,94166.28
2023-03-01T08:07:34.191Z,94166.47
2023-03-01T08:08:30.909Z,94168.59
2023-03-01T08:09:27.529Z,94151.41
2023-03-01T08:10:24.120Z,94164.31
2023-03-01T08:11:21.036Z,94158.16
2023-03-01T08:12:17.968Z,94162.94
2023-03-01T08:13:14.738Z,94159.91
2023-03-01T08:14:14.171Z,94162.84
2023-03-01T08:15:11.393Z,94156.06
2023-03-01T08:16:17.315Z,94111.31
2023-03-01T08:17:17.169Z,94050.06
2023-03-01T08:18:13.769Z,94161.38
2023-03-01T08:19:12.993Z,94157.75
2023-03-01T08:20:13.514Z,94147.94
2023-03-01T08:21:13.130Z,94122.88
2023-03-01T08:22:09.758Z,94115.91
2023-03-01T08:23:06.371Z,94160.47
2023-03-01T08:24:04.779Z,94144.50
2023-03-01T08:25:01.468Z,94160.78
2023-03-01T08:26:14.136Z,94137.03
2023-03-01T08:27:11.309Z,94154.00
2023-03-01T08:28:07.890Z,94150.19
2023-03-01T08:29:04.557Z,94104.63
2023-03-01T08:30:01.300Z,94148.41
2023-03-01T08:30:57.866Z,94153.78
2023-03-01T08:31:54.563Z,94152.66
2023-03-01T08:32:51.658Z,94141.00
2023-03-01T08:33:51.800Z,94134.34
2023-03-01T08:34:49.202Z,94122.72
2023-03-01T08:35:45.877Z,94151.88
2023-03-01T08:36:44.959Z,94152.13
2023-03-01T08:37:41.554Z,94151.00
2023-03-01T08:38:38.142Z,94156.75
2023-03-01T08:39:34.788Z,94154.19
2023-03-01T08:40:31.437Z,94165.75
2023-03-01T08:41:28.710Z,94163.38
2023-03-01T08:42:25.385Z,94157.63
2023-03-01T08:43:22.864Z,94155.50
2023-03-01T08:44:20.897Z,94160.88
2023-03-01T08:45:19.506Z,94151.63
2023-03-01T08:46:16.326Z,94155.13
2023-03-01T08:47:13.050Z,94163.69
2023-03-01T08:48:09.647Z,94158.66
2023-03-01T08:49:08.210Z,94149.72
2023-03-01T08:50:05.952Z,94120.56
2023-03-01T08:51:16.852Z,94156.59
2023-03-01T08:52:13.470Z,94162.25
2023-03-01T08:53:10.113Z,94154.56
2023-03-01T08:54:17.694Z,94125.78
2023-03-01T08:55:16.067Z,94157.25
2023-03-01T08:56:13.247Z,94159.69
2023-03-01T08:57:10.753Z,94153.34
2023-03-01T08:58:07.345Z,94069.34
2023-03-01T08:59:04.500Z,94127.25
2023-03-01T09:00:01.116Z,94156.66
2023-03-01T09:00:57.768Z,94163.09
2023-03-01T09:01:54.427Z,94149.09
2023-03-01T09:02:51.062Z,94162.44
2023-03-01T09:03:48.043Z,94129.66
2023-03-01T09:04:45.360Z,94156.94
2023-03-01T09:05:41.946Z,94136.50
2023-03-01T09:06:38.697Z,94162.03
2023-03-01T09:07:35.317Z,94162.94
2023-03-01T09:08:35.213Z,94150.66
2023-03-01T09:09:31.906Z,94163.75
2023-03-01T09:10:28.571Z,94171.69
2023-03-01T09:11:25.340Z,94161.56
2023-03-01T09:12:25.181Z,94142.56
2023-03-01T09:13:24.754Z,94151.78
2023-03-01T09:14:21.383Z,94166.91
2023-03-01T09:15:17.943Z,94155.25
2023-03-01T09:16:17.678Z,94163.63
2023-03-01T09:17:14.334Z,94164.06
2023-03-01T09:18:10.930Z,94157.44
2023-03-01T09:19:07.621Z,94154.34
2023-03-01T09:20:06.837Z,94150.91
2023-03-01T09:21:11.401Z,94154.81
2023-03-01T09:22:08.086Z,94157.16
2023-03-01T09:23:04.763Z,94149.94
2023-03-01T09:24:01.394Z,94157.81
2023-03-01T09:25:00.305Z,94154.53
2023-03-01T09:25:56.958Z,94162.41
2023-03-01T09:26:58.030Z,94163.84
2023-03-01T09:27:55.741Z,94156.94
2023-03-01T09:28:55.902Z,94156.53
2023-03-01T09:29:52.488Z,94160.72
2023-03-01T09:30:49.229Z,94158.09
2023-03-01T09:31:45.907Z,94157.16
2023-03-01T09:32:43.685Z,94151.13
2023-03-01T09:33:41.736Z,94150.50
2023-03-01T09:34:58.290Z,94120.94
2023-03-01T09:36:02.335Z,94144.50
2023-03-01T09:36:59.488Z,94145.88
2023-03-01T09:37:56.123Z,94141.25
2023-03-01T09:38:53.979Z,94141.19
2023-03-01T09:39:50.668Z,94113.16
2023-03-01T09:40:47.612Z,94138.50
2023-03-01T09:42:00.809Z,94145.81
2023-03-01T09:43:04.273Z,94138.38
2023-03-01T09:44:09.061Z,94138.22
2023-03-01T09:45:24.589Z,94144.34
2023-03-01T09:46:24.679Z,94142.97
2023-03-01T09:47:24.650Z,94139.53
2023-03-01T09:48:25.217Z,94145.28
2023-03-01T09:49:34.469Z,94150.59
2023-03-01T09:50:42.072Z,94132.91
2023-03-01T09:51:41.316Z,94140.44
2023-03-01T09:52:41.027Z,94142.03
2023-03-01T09:53:38.019Z,94143.75
2023-03-01T09:54:34.858Z,94138.44
2023-03-01T09:55:46.225Z,94145.19
2023-03-01T09:56:54.905Z,94141.28
2023-03-01T09:58:02.712Z,94143.59
2023-03-01T09:59:05.304Z,94105.56
2023-03-01T10:00:27.107Z,94137.22
2023-03-01T10:01:30.660Z,94139.25
2023-03-01T10:02:46.028Z,94132.50
2023-03-01T10:04:07.584Z,94126.94
2023-03-01T10:05:33.332Z,94124.41
2023-03-01T10:06:35.319Z,94127.56
2023-03-01T10:07:53.833Z,94126.13
2023-03-01T10:08:58.819Z,94110.22
2023-03-01T10:09:55.676Z,94110.06
2023-03-01T10:10:53.545Z,94120.97
2023-03-01T10:11:55.017Z,94072.47
2023-03-01T10:12:52.325Z,94112.19
2023-03-01T10:13:53.884Z,94120.81
2023-03-01T10:15:22.977Z,94125.03
2023-03-01T10:16:31.513Z,94118.50
2023-03-01T10:17:47.994Z,94125.50
2023-03-01T10:18:50.816Z,94074.81
2023-03-01T10:19:48.146Z,94119.88
2023-03-01T10:20:58.303Z,94120.06
2023-03-01T10:21:58.180Z,94120.06
2023-03-01T10:22:56.275Z,94123.19
2023-03-01T10:23:54.459Z,94120.78
2023-03-01T10:24:52.713Z,94115.31
2023-03-01T10:26:09.337Z,94119.41
2023-03-01T10:27:13.277Z,94094.41
2023-03-01T10:28:32.484Z,94110.31
2023-03-01T10:29:40.737Z,94113.75
2023-03-01T10:30:43.078Z,94104.31
2023-03-01T10:31:42.162Z,94107.25
2023-03-01T10:32:39.161Z,94105.38
2023-03-01T10:33:40.657Z,94103.75
2023-03-01T10:34:38.463Z,94107.66
2023-03-01T10:35:35.421Z,94107.19
2023-03-01T10:36:34.200Z,94076.59
2023-03-01T10:37:30.916Z,94100.88
2023-03-01T10:38:30.664Z,94103.16
2023-03-01T10:39:27.443Z,94093.13
2023-03-01T10:40:24.065Z,94090.34
2023-03-01T10:41:24.421Z,94098.78
2023-03-01T10:42:30.310Z,94091.81
2023-03-01T10:43:33.093Z,94098.47
2023-03-01T10:44:47.352Z,94103.94
2023-03-01T10:45:44.282Z,94107.31
2023-03-01T10:46:40.954Z,94097.31
2023-03-01T10:47:37.664Z,94071.84
2023-03-01T10:48:34.661Z,94099.19
2023-03-01T10:49:31.460Z,94093.34
2023-03-01T10:50:28.124Z,94084.66
2023-03-01T10:51:24.762Z,94089.00
2023-03-01T10:52:25.323Z,94082.03
2023-03-01T10:53:33.546Z,94085.16
2023-03-01T10:54:32.981Z,94079.56
2023-03-01T10:55:40.728Z,94089.16
2023-03-01T10:57:00.782Z,94078.34
2023-03-01T10:58:22.116Z,94077.69
2023-03-01T10:59:31.317Z,94062.94
2023-03-01T11:00:28.898Z,94082.72
2023-03-01T11:01:36.898Z,94074.91
2023-03-01T11:02:35.053Z,94076.16
2023-03-01T11:03:35.231Z,94072.88
2023-03-01T11:04:31.966Z,94069.53
2023-03-01T11:05:34.207Z,94045.19
2023-03-01T11:06:30.901Z,94075.28
2023-03-01T11:07:28.133Z,94078.78
2023-03-01T11:08:45.742Z,94076.38
2023-03-01T11:09:42.347Z,94063.88
2023-03-01T11:10:38.897Z,94086.59
2023-03-01T11:11:36.122Z,94076.72
2023-03-01T11:12:33.764Z,94080.25
2023-03-01T11:13:30.443Z,94067.31
2023-03-01T11:14:31.656Z,94058.75
2023-03-01T11:15:29.993Z,94024.56
2023-03-01T11:16:28.982Z,94073.88
2023-03-01T11:17:34.694Z,94072.84
2023-03-01T11:18:47.078Z,94070.81
2023-03-01T11:20:02.901Z,94082.69
2023-03-01T11:21:01.976Z,94078.41
2023-03-01T11:22:20.929Z,94073.78
2023-03-01T11:23:18.470Z,94080.44
2023-03-01T11:24:18.486Z,94074.75
2023-03-01T11:25:16.235Z,94035.88
2023-03-01T11:26:16.454Z,94063.78
2023-03-01T11:27:33.645Z,94078.00
2023-03-01T11:28:31.266Z,94086.44
2023-03-01T11:29:47.697Z,94089.59
2023-03-01T11:31:07.101Z,94083.16
2023-03-01T11:32:09.988Z,94074.03
2023-03-01T11:33:09.550Z,94072.31
2023-03-01T11:34:15.991Z,94075.66
2023-03-01T11:35:23.905Z,94067.56
2023-03-01T11:36:29.692Z,94071.78
2023-03-01T11:37:35.280Z,94078.78